Delray Beach, FL

1:18 PM EDT on July 01, 2015 (GMT -0400)
Lake Ida - Garden House | | Change Station
CLOSE
Current Station
Personal Weather Station
Location: Delray Beach, FL
Elevation: 0 ft
Nearby Weather Stations

Elev 0 ft 26.48 °N, 80.07 °W | Updated 1 minute ago

Partly Cloudy
Partly Cloudy
91.4 °F
Feels Like 110 °F
N
0.0
Wind Variable Wind from SE

Today
High -- | Low -- °F
--% Chance of Precip.
Yesterday
High -- | Low -- °F
Precip. -- in
6:30 AM 8:17 PM
Full, 100% visible
Pressure 30.15 in
Visibility 8.0 miles
Clouds Few 2700 ft
Few 3200 ft
Scattered Clouds 25000 ft
Heat Index 110 °F
Dew Point 80 °F
Humidity 70%
Rainfall 0.00 in
Snow Depth Not available.
UV 12 out of 12
Pollen 3.80 out of 12
Air Quality Not available.
Flu Activity Not available.
METAR KPMP 011653Z 12011KT 8SM FEW027 FEW032 SCT250 32/24 A3015 RMK AO2 SLP209 T03220244

More Conditions Fewer Conditions

Pressure 30.15 in
Visibility 8.0 miles
Clouds Few 2700 ft
Few 3200 ft
Scattered Clouds 25000 ft
Heat Index 110 °F
Dew Point 80 °F
Humidity 70%
Rainfall 0.00 in
Snow Depth Not available.
UV 12 out of 12
Pollen 3.80 out of 12
Air Quality Not available.
Flu Activity Not available.
METAR KPMP 011653Z 12011KT 8SM FEW027 FEW032 SCT250 32/24 A3015 RMK AO2 SLP209 T03220244

More Conditions Fewer Conditions

10-Day Weather Forecast

×

Almanac

Astronomy

Jul. 01, 2015 Rise Set
Actual Time
Civil Twilight
Nautical Twilight
Astronomical Twilight
Moon
Length of Visible Light
Length of Day
Tomorrow will be .
, % of the Moon is Illuminated

Today's Extremes

State Highs State Lows

Community

WunderPhotos

Upload Photos

1,834,248 photos uploaded!

WunderBlogs® & News

Nearby

Air Quality

  Air Quality AQ Index Pollutant
Not available.

Snow Depth

Station Depth Elevation

Earthquake Activity

City Distance Mag. Time & Date
Minimum magnitude displayed is 2.5.

Coastal Water Temperatures

Place Temperature

Stations

Nearby Weather Stations

Station Location Temp. Windchill Dew Point Humidity Wind Precip. Elev Updated Type